Time;durP1;ratioP1;P1;durP2;ratioP2;P2;SDS_P1;SDS_P2;PMS_P1;PMS_P2;Temp;Humidity;BMP_temperature;BMP_pressure;BME280_temperature;BME280_humidity;BME280_pressure;Samples;Min_cycle;Max_cycle;Signal;HPM_P1;HPM_P2
2021/03/08 00:00:20;;;;;;;9.27;3.67;;;0.70;84.80;;;;;;5076843;28;20649;-81
2021/03/08 00:02:58;;;;;;;17.27;4.67;;;0.70;84.90;;;;;;5058529;28;20583;-81
2021/03/08 00:05:31;;;;;;;14.63;4.67;;;0.70;84.90;;;;;;5076776;28;20217;-81
2021/03/08 00:08:04;;;;;;;20.53;5.20;;;0.80;84.90;;;;;;5076360;28;20219;-80
2021/03/08 00:10:33;;;;;;;17.17;4.40;;;0.90;84.70;;;;;;5076800;28;20163;-81
2021/03/08 00:13:06;;;;;;;13.53;4.00;;;1.00;84.30;;;;;;5058683;28;20552;-81
2021/03/08 00:15:39;;;;;;;16.27;4.40;;;0.90;84.00;;;;;;5076335;28;20179;-82
2021/03/08 00:18:08;;;;;;;10.73;4.00;;;0.90;84.00;;;;;;5076212;28;20156;-82
2021/03/08 00:20:41;;;;;;;20.60;4.93;;;0.90;84.00;;;;;;5058590;28;20175;-81
2021/03/08 00:23:15;;;;;;;11.63;3.80;;;0.90;83.90;;;;;;5076159;28;20643;-81
2021/03/08 00:25:50;;;;;;;14.03;4.43;;;0.90;83.60;;;;;;5076583;28;20183;-81
2021/03/08 00:28:27;;;;;;;10.13;3.83;;;0.90;83.40;;;;;;5076045;28;20273;-80
2021/03/08 00:30:59;;;;;;;12.10;3.77;;;0.80;83.30;;;;;;5076096;28;20181;-80
2021/03/08 00:33:31;;;;;;;14.47;3.57;;;0.80;83.30;;;;;;5076053;28;20187;-81
2021/03/08 00:36:05;;;;;;;8.93;3.20;;;0.80;83.20;;;;;;5057975;28;20658;-81
2021/03/08 00:38:31;;;;;;;10.27;3.87;;;0.70;82.90;;;;;;5075539;28;20744;-81
2021/03/08 00:41:05;;;;;;;16.50;4.50;;;0.60;82.60;;;;;;5076275;28;20159;-83
2021/03/08 00:43:40;;;;;;;11.50;3.27;;;0.60;82.40;;;;;;5057756;28;20627;-81
2021/03/08 00:46:12;;;;;;;13.17;3.63;;;0.60;82.30;;;;;;5056953;28;20259;-81
2021/03/08 00:48:45;;;;;;;15.57;3.50;;;0.40;82.00;;;;;;5075665;28;20206;-82
2021/03/08 00:51:11;;;;;;;14.70;4.00;;;0.30;82.00;;;;;;5075804;28;20172;-81
2021/03/08 00:53:47;;;;;;;12.77;3.50;;;0.20;82.40;;;;;;5075997;28;20255;-81
2021/03/08 00:56:17;;;;;;;11.97;3.97;;;0.00;83.10;;;;;;5075986;28;20603;-81
2021/03/08 00:58:51;;;;;;;18.80;4.60;;;-0.10;83.50;;;;;;5075460;28;20269;-82
2021/03/08 01:01:18;;;;;;;15.67;3.70;;;-0.30;83.80;;;;;;5057453;28;20178;-82
2021/03/08 01:03:55;;;;;;;19.13;4.70;;;-0.40;84.30;;;;;;5075713;28;20262;-81
2021/03/08 01:06:21;;;;;;;9.10;4.00;;;-0.40;84.50;;;;;;5075471;28;20160;-80
2021/03/08 01:08:54;;;;;;;20.90;5.00;;;-0.50;84.80;;;;;;5075465;28;20677;-81
2021/03/08 01:11:24;;;;;;;11.60;3.90;;;-0.50;85.00;;;;;;5057320;28;20171;-81
2021/03/08 01:13:57;;;;;;;14.23;4.27;;;-0.60;85.20;;;;;;5057433;28;20573;-81
2021/03/08 01:16:35;;;;;;;12.40;4.50;;;-0.70;85.30;;;;;;5075325;28;20664;-80
2021/03/08 01:19:04;;;;;;;13.70;3.57;;;-0.70;85.40;;;;;;5057094;28;20679;-80
2021/03/08 01:21:38;;;;;;;12.10;4.07;;;-0.60;85.40;;;;;;5075214;28;20169;-80
2021/03/08 01:24:11;;;;;;;12.80;4.53;;;-0.70;85.40;;;;;;5075410;28;20157;-80
2021/03/08 01:26:41;;;;;;;10.87;3.57;;;-0.60;85.30;;;;;;5075215;28;20180;-81
2021/03/08 01:29:15;;;;;;;17.30;4.13;;;-0.50;85.00;;;;;;5075006;28;20193;-82
2021/03/08 01:31:51;;;;;;;11.97;3.90;;;-0.50;85.00;;;;;;5075233;28;20533;-81
2021/03/08 01:34:28;;;;;;;14.80;3.23;;;-0.50;85.00;;;;;;5075299;28;20174;-81
2021/03/08 01:36:59;;;;;;;10.33;3.63;;;-0.50;84.80;;;;;;5075275;28;20162;-81
2021/03/08 01:39:33;;;;;;;12.10;3.80;;;-0.50;84.50;;;;;;5173638;22;20237;-83
2021/03/08 01:42:05;;;;;;;10.53;3.07;;;-0.60;84.00;;;;;;5094964;28;20587;-82
2021/03/08 01:44:41;;;;;;;18.80;4.83;;;-0.70;84.00;;;;;;5094720;28;20166;-82
2021/03/08 01:47:13;;;;;;;14.57;4.23;;;-0.70;84.10;;;;;;5094589;28;20575;-82
2021/03/08 01:49:48;;;;;;;24.43;5.00;;;-0.70;84.40;;;;;;5094714;28;20624;-83
2021/03/08 01:52:21;;;;;;;13.37;4.07;;;-0.60;84.50;;;;;;5094436;28;20197;-82
2021/03/08 01:54:47;;;;;;;11.87;3.63;;;-0.80;84.40;;;;;;5076333;28;20560;-83
2021/03/08 01:57:21;;;;;;;18.47;3.97;;;-0.80;84.40;;;;;;5076162;28;20211;-82
2021/03/08 01:59:56;;;;;;;17.27;4.97;;;-0.80;84.60;;;;;;5094342;28;20194;-82
2021/03/08 02:02:31;;;;;;;11.17;4.10;;;-0.90;84.70;;;;;;5094216;28;20177;-82
2021/03/08 02:04:57;;;;;;;15.93;4.00;;;-0.90;84.70;;;;;;5076023;28;20625;-82
2021/03/08 02:07:31;;;;;;;15.33;3.87;;;-0.90;84.60;;;;;;5094217;28;20217;-83
2021/03/08 02:10:12;;;;;;;11.57;3.53;;;-0.90;84.60;;;;;;5093346;28;20590;-82
2021/03/08 02:13:10;;;;;;;10.73;3.37;;;-0.90;84.50;;;;;;5093925;28;20674;-82
2021/03/08 02:16:08;;;;;;;12.93;3.60;;;-1.00;84.30;;;;;;5075801;28;20176;-82
2021/03/08 02:19:07;;;;;;;8.53;3.47;;;-1.00;84.10;;;;;;5075817;28;20183;-82
2021/03/08 02:22:05;;;;;;;12.47;3.70;;;-1.00;83.60;;;;;;5094255;28;20163;-83
2021/03/08 02:25:01;;;;;;;12.63;3.77;;;-1.10;83.20;;;;;;5093858;28;20177;-82
2021/03/08 02:27:46;;;;;;;9.33;3.90;;;-1.10;82.90;;;;;;5093867;28;20176;-82
2021/03/08 02:30:40;;;;;;;13.47;3.77;;;-1.20;82.80;;;;;;5075504;28;20212;-82
2021/03/08 02:33:11;;;;;;;17.07;3.90;;;-1.20;82.40;;;;;;5075564;28;20662;-82
2021/03/08 02:35:51;;;;;;;12.33;4.23;;;-1.20;82.20;;;;;;5093809;28;20189;-82
2021/03/08 02:38:28;;;;;;;7.30;3.77;;;-1.20;82.10;;;;;;5093706;28;20214;-82
2021/03/08 02:41:17;;;;;;;13.30;4.13;;;-1.30;81.90;;;;;;5093588;28;20191;-82
2021/03/08 02:43:55;;;;;;;11.40;3.57;;;-1.30;81.80;;;;;;5075706;28;20183;-82
2021/03/08 02:46:35;;;;;;;11.87;4.17;;;-1.30;81.60;;;;;;5093869;28;20190;-82
2021/03/08 02:49:22;;;;;;;13.67;3.33;;;-1.40;81.30;;;;;;5094018;28;20566;-82
2021/03/08 02:51:58;;;;;;;18.13;4.03;;;-1.50;81.20;;;;;;5075226;28;20230;-82
2021/03/08 02:54:26;;;;;;;8.17;3.83;;;-1.50;81.20;;;;;;5093412;28;20171;-82
2021/03/08 02:57:03;;;;;;;17.53;4.00;;;-1.60;81.00;;;;;;5093378;28;20545;-82
2021/03/08 02:59:35;;;;;;;11.23;3.90;;;-1.60;81.10;;;;;;5093314;28;20644;-82
2021/03/08 03:02:09;;;;;;;10.33;3.90;;;-1.60;81.70;;;;;;5093695;28;20167;-82
2021/03/08 03:04:47;;;;;;;13.17;3.90;;;-1.70;82.10;;;;;;5093448;28;20705;-82
2021/03/08 03:07:21;;;;;;;12.60;3.53;;;-1.70;82.00;;;;;;5093320;28;20579;-82
2021/03/08 03:09:53;;;;;;;9.07;3.40;;;-1.90;81.90;;;;;;5099416;28;20657;-82
2021/03/08 03:12:34;;;;;;;16.17;3.77;;;-1.90;82.30;;;;;;5099914;28;20198;-82
2021/03/08 03:15:09;;;;;;;13.93;4.43;;;-1.90;82.80;;;;;;5082425;28;20219;-82
2021/03/08 03:17:42;;;;;;;17.13;4.33;;;-1.90;82.90;;;;;;5081746;28;20703;-82
2021/03/08 03:20:16;;;;;;;10.87;3.67;;;-1.90;83.60;;;;;;5099955;28;20198;-82
2021/03/08 03:22:49;;;;;;;15.30;3.70;;;-1.90;84.30;;;;;;5100014;28;20185;-82
2021/03/08 03:25:24;;;;;;;14.67;4.10;;;-1.90;84.30;;;;;;5081693;28;20191;-82
2021/03/08 03:27:56;;;;;;;13.13;4.10;;;-1.90;84.20;;;;;;5099847;28;20166;-82
2021/03/08 03:30:31;;;;;;;6.03;3.10;;;-2.00;84.20;;;;;;5099807;28;20206;-82
2021/03/08 03:33:06;;;;;;;11.40;5.23;;;-2.00;83.90;;;;;;5099810;28;20539;-82
2021/03/08 03:35:38;;;;;;;14.23;3.87;;;-2.10;83.80;;;;;;5081482;28;20181;-82
2021/03/08 03:38:18;;;;;;;13.77;4.23;;;-2.20;84.70;;;;;;5099837;28;20587;-82
2021/03/08 03:40:57;;;;;;;10.77;4.67;;;-2.30;85.10;;;;;;5099641;28;20233;-82
2021/03/08 03:43:31;;;;;;;15.10;3.40;;;-2.40;84.90;;;;;;5081470;28;20178;-82
2021/03/08 03:46:06;;;;;;;11.33;3.97;;;-2.40;85.00;;;;;;5100001;28;20170;-82
2021/03/08 03:48:40;;;;;;;13.60;4.07;;;-2.50;84.70;;;;;;5099645;28;20156;-82
2021/03/08 03:51:13;;;;;;;17.67;4.17;;;-2.40;84.90;;;;;;5099659;28;20636;-82
2021/03/08 03:53:54;;;;;;;14.13;3.70;;;-2.40;84.90;;;;;;5081915;28;20205;-82
2021/03/08 03:56:32;;;;;;;15.80;4.23;;;-2.40;84.50;;;;;;5099573;28;20171;-82
2021/03/08 03:59:27;;;;;;;13.17;3.40;;;-2.50;84.10;;;;;;5081627;28;20208;-81
2021/03/08 04:02:05;;;;;;;13.27;3.60;;;-2.50;83.60;;;;;;5099899;28;20278;-82
2021/03/08 04:04:49;;;;;;;14.53;3.33;;;-2.50;83.20;;;;;;5099728;28;20638;-82
2021/03/08 04:07:21;;;;;;;6.47;2.83;;;-2.50;82.80;;;;;;5100003;28;20567;-82
2021/03/08 04:09:57;;;;;;;17.80;3.23;;;-2.60;82.50;;;;;;5099358;28;20194;-82
2021/03/08 04:12:28;;;;;;;8.67;3.50;;;-2.60;82.20;;;;;;5081197;28;20640;-81
2021/03/08 04:15:05;;;;;;;9.87;3.47;;;-2.70;82.00;;;;;;5081558;28;20538;-82
2021/03/08 04:17:38;;;;;;;8.37;3.23;;;-2.70;82.00;;;;;;5098888;28;20178;-82
2021/03/08 04:20:15;;;;;;;8.37;3.13;;;-2.80;82.00;;;;;;5097057;28;20594;-82
2021/03/08 04:22:51;;;;;;;11.37;3.70;;;-2.80;81.90;;;;;;5096282;28;20260;-82
2021/03/08 04:25:23;;;;;;;10.90;4.00;;;-2.80;81.90;;;;;;5096113;28;20166;-82
2021/03/08 04:27:57;;;;;;;7.67;2.73;;;-2.90;81.70;;;;;;5096255;28;20181;-81
2021/03/08 04:30:31;;;;;;;9.77;3.63;;;-3.00;81.50;;;;;;5096045;28;20181;-82
2021/03/08 04:33:05;;;;;;;5.43;3.03;;;-3.00;81.50;;;;;;5096070;28;20680;-82
2021/03/08 04:35:32;;;;;;;10.97;3.40;;;-3.00;81.80;;;;;;5096252;28;20622;-82
2021/03/08 04:38:06;;;;;;;9.53;3.40;;;-3.10;81.70;;;;;;5095800;28;20171;-82
2021/03/08 04:40:41;;;;;;;9.77;3.40;;;-3.10;81.70;;;;;;5095745;28;20621;-81
2021/03/08 04:43:16;;;;;;;6.20;3.17;;;-3.10;81.70;;;;;;5077714;28;20692;-81
2021/03/08 04:45:48;;;;;;;13.83;4.60;;;-3.20;81.60;;;;;;5095979;28;20173;-81
2021/03/08 04:48:24;;;;;;;8.47;3.23;;;-3.30;81.70;;;;;;5077581;28;20183;-81
2021/03/08 04:51:03;;;;;;;6.63;4.00;;;-3.30;81.80;;;;;;5077538;28;20594;-82
2021/03/08 04:53:40;;;;;;;16.17;3.67;;;-3.20;81.70;;;;;;5095704;28;20205;-81
2021/03/08 04:56:19;;;;;;;10.90;2.97;;;-3.30;81.70;;;;;;5095664;28;20167;-82
2021/03/08 04:58:58;;;;;;;13.27;3.73;;;-3.30;81.90;;;;;;5077535;28;20195;-82
2021/03/08 05:01:33;;;;;;;9.73;3.20;;;-3.30;81.90;;;;;;5095386;28;20159;-81
2021/03/08 05:04:02;;;;;;;8.80;3.03;;;-3.20;82.00;;;;;;5095554;28;20155;-82
2021/03/08 05:06:31;;;;;;;9.33;3.13;;;-3.30;82.00;;;;;;5095469;28;20171;-81
2021/03/08 05:09:01;;;;;;;7.93;2.90;;;-3.30;82.00;;;;;;5095302;28;20244;-81
2021/03/08 05:11:36;;;;;;;5.73;3.13;;;-3.30;82.10;;;;;;5077106;28;20593;-81
2021/03/08 05:14:07;;;;;;;11.30;3.30;;;-3.30;82.10;;;;;;5095300;28;20180;-82
2021/03/08 05:16:55;;;;;;;9.67;3.67;;;-3.30;82.50;;;;;;5077137;28;20167;-82
2021/03/08 05:19:23;;;;;;;10.63;3.30;;;-3.30;82.90;;;;;;5095126;28;20218;-81
2021/03/08 05:21:50;;;;;;;19.90;3.27;;;-3.30;82.90;;;;;;5095022;28;20171;-81
2021/03/08 05:24:27;;;;;;;8.63;3.37;;;-3.40;83.00;;;;;;5095079;28;20171;-82
2021/03/08 05:27:08;;;;;;;11.97;3.83;;;-3.40;83.20;;;;;;5094980;28;20170;-81
2021/03/08 05:29:45;;;;;;;12.73;3.53;;;-3.50;83.10;;;;;;5094877;28;20193;-81
2021/03/08 05:32:31;;;;;;;9.33;3.10;;;-3.50;84.00;;;;;;5095345;28;20194;-81
2021/03/08 05:35:09;;;;;;;11.70;3.63;;;-3.40;84.80;;;;;;5094789;28;20216;-81
2021/03/08 05:37:38;;;;;;;11.40;3.20;;;-3.30;84.80;;;;;;5076649;28;20167;-82
2021/03/08 05:40:23;;;;;;;17.73;3.07;;;-3.30;84.70;;;;;;5094656;28;20574;-81
2021/03/08 05:43:10;;;;;;;8.40;2.97;;;-3.30;84.60;;;;;;5094895;28;20171;-81
2021/03/08 05:46:06;;;;;;;5.63;3.00;;;-3.30;84.30;;;;;;5094903;28;20194;-81
2021/03/08 05:49:06;;;;;;;6.10;2.90;;;-3.40;84.00;;;;;;5074061;28;20183;-82
2021/03/08 05:51:41;;;;;;;14.37;2.83;;;-3.40;83.70;;;;;;5076349;28;20166;-81
2021/03/08 05:54:31;;;;;;;10.77;3.80;;;-3.50;83.40;;;;;;5094456;28;20184;-81
2021/03/08 05:57:19;;;;;;;6.73;3.03;;;-3.50;83.20;;;;;;5076236;28;20193;-81
2021/03/08 06:00:20;;;;;;;5.40;2.83;;;-3.50;83.00;;;;;;5094549;28;20229;-81
2021/03/08 06:03:08;;;;;;;9.47;3.67;;;-3.50;82.70;;;;;;5076303;28;20252;-82
2021/03/08 06:06:11;;;;;;;14.00;3.17;;;-3.50;82.50;;;;;;5094388;28;20634;-81
2021/03/08 06:09:04;;;;;;;7.30;2.83;;;-3.60;82.60;;;;;;5076023;28;20236;-81
2021/03/08 06:11:45;;;;;;;14.90;3.73;;;-3.60;82.70;;;;;;5094145;28;20178;-81
2021/03/08 06:14:19;;;;;;;11.03;3.27;;;-3.60;82.80;;;;;;5094093;28;20175;-82
2021/03/08 06:16:51;;;;;;;8.43;2.90;;;-3.60;82.80;;;;;;5094061;28;20162;-81
2021/03/08 06:19:19;;;;;;;12.00;3.20;;;-3.60;83.00;;;;;;5094159;28;20243;-81
2021/03/08 06:21:49;;;;;;;11.20;3.10;;;-3.60;83.20;;;;;;5075849;28;20206;-81
2021/03/08 06:24:23;;;;;;;7.00;3.33;;;-3.60;83.20;;;;;;5094268;28;20184;-81
2021/03/08 06:26:56;;;;;;;10.93;3.07;;;-3.60;83.40;;;;;;5093982;28;20159;-81
2021/03/08 06:29:29;;;;;;;8.13;3.17;;;-3.60;83.60;;;;;;5093807;28;20334;-82
2021/03/08 06:32:02;;;;;;;9.50;4.40;;;-3.60;84.10;;;;;;5075613;28;20552;-81
2021/03/08 06:34:35;;;;;;;13.27;5.03;;;-3.60;84.30;;;;;;5075673;28;20175;-82
2021/03/08 06:37:11;;;;;;;14.57;5.77;;;-3.50;84.20;;;;;;5093699;28;20185;-81
2021/03/08 06:39:50;;;;;;;16.67;6.87;;;-3.50;84.20;;;;;;5075414;28;20637;-81
2021/03/08 06:42:23;;;;;;;14.07;5.60;;;-3.40;84.90;;;;;;5093694;28;20569;-81
2021/03/08 06:44:57;;;;;;;11.30;4.80;;;-3.40;85.20;;;;;;5074953;28;20654;-82
2021/03/08 06:47:30;;;;;;;9.03;4.03;;;-3.40;86.00;;;;;;5093662;28;20269;-81
2021/03/08 06:50:01;;;;;;;13.33;4.80;;;-3.40;86.80;;;;;;5075651;28;20198;-81
2021/03/08 06:52:46;;;;;;;12.97;4.20;;;-3.30;86.50;;;;;;5093404;28;20214;-83
2021/03/08 06:55:21;;;;;;;14.50;4.50;;;-3.30;86.40;;;;;;5093748;28;20517;-84
2021/03/08 06:57:50;;;;;;;6.07;4.07;;;-3.20;86.20;;;;;;5093463;28;20182;-83
2021/03/08 07:00:19;;;;;;;9.03;4.00;;;-3.20;86.00;;;;;;5093584;28;20191;-83
2021/03/08 07:02:51;;;;;;;8.07;4.50;;;-3.20;85.70;;;;;;5093763;28;20261;-83
2021/03/08 07:05:27;;;;;;;7.43;4.47;;;-3.10;85.20;;;;;;5093397;28;20242;-83
2021/03/08 07:08:00;;;;;;;17.70;5.37;;;-2.90;86.60;;;;;;5075175;28;20204;-83
2021/03/08 07:10:41;;;;;;;12.83;4.77;;;-2.80;87.00;;;;;;5093355;28;20198;-84
2021/03/08 07:13:10;;;;;;;16.33;5.47;;;-2.70;87.20;;;;;;5093521;28;20214;-83
2021/03/08 07:16:02;;;;;;;11.60;4.37;;;-2.60;87.10;;;;;;5093364;28;20175;-84
2021/03/08 07:18:40;;;;;;;10.17;4.90;;;-2.50;87.70;;;;;;5075025;28;20662;-83
2021/03/08 07:21:18;;;;;;;14.33;4.93;;;-2.40;88.00;;;;;;5093158;28;20257;-83
2021/03/08 07:23:54;;;;;;;13.17;5.70;;;-2.30;88.10;;;;;;5093091;28;20702;-83
2021/03/08 07:26:30;;;;;;;13.20;5.07;;;-2.20;88.40;;;;;;5093210;28;20163;-84
2021/03/08 07:29:30;;;;;;;9.63;4.90;;;-2.20;88.30;;;;;;5092973;28;20276;-83
2021/03/08 07:32:01;;;;;;;13.53;4.47;;;-2.20;88.20;;;;;;5082087;28;20617;-84
2021/03/08 07:34:46;;;;;;;11.27;4.10;;;-2.10;88.10;;;;;;5074867;28;20635;-84
2021/03/08 07:37:19;;;;;;;12.40;4.50;;;-2.10;88.20;;;;;;5074872;28;20254;-83
2021/03/08 07:39:58;;;;;;;7.73;4.30;;;-2.10;88.30;;;;;;5117706;22;20230;-81
2021/03/08 07:42:44;;;;;;;18.00;4.67;;;-2.00;88.80;;;;;;5075858;28;20202;-81
2021/03/08 07:45:16;;;;;;;12.80;4.87;;;-1.90;88.30;;;;;;5075648;28;20570;-81
2021/03/08 07:48:08;;;;;;;8.37;4.63;;;-1.80;88.30;;;;;;5093250;28;20179;-81
2021/03/08 07:50:40;;;;;;;14.47;4.73;;;-1.70;87.80;;;;;;5093067;28;20686;-81
2021/03/08 07:53:35;;;;;;;14.23;4.27;;;-1.60;87.80;;;;;;5074869;28;20210;-81
2021/03/08 07:56:09;;;;;;;13.80;5.13;;;-1.60;87.70;;;;;;5078128;28;20174;-81
2021/03/08 07:58:42;;;;;;;13.13;5.17;;;-1.50;87.70;;;;;;5097043;28;20542;-81
2021/03/08 08:01:13;;;;;;;17.63;5.03;;;-1.40;87.50;;;;;;5096846;28;20725;-81
2021/03/08 08:03:39;;;;;;;15.10;4.87;;;-1.40;87.40;;;;;;5078687;28;20202;-81
2021/03/08 08:06:10;;;;;;;9.83;5.00;;;-1.40;87.30;;;;;;5096841;28;20228;-81
2021/03/08 08:08:48;;;;;;;17.47;5.07;;;-1.30;87.30;;;;;;5078356;28;20181;-79
2021/03/08 08:11:19;;;;;;;10.07;4.37;;;-1.20;87.30;;;;;;5078891;28;20167;-81
2021/03/08 08:13:53;;;;;;;11.67;4.23;;;-1.10;87.20;;;;;;5096656;28;20190;-81
2021/03/08 08:16:30;;;;;;;12.17;4.50;;;-1.00;87.60;;;;;;5078596;28;20623;-82
2021/03/08 08:19:05;;;;;;;7.47;4.10;;;-0.80;87.40;;;;;;5096661;28;20194;-81
2021/03/08 08:21:47;;;;;;;12.10;4.80;;;-0.80;87.10;;;;;;5096431;28;20160;-81
2021/03/08 08:24:31;;;;;;;10.73;5.50;;;-0.70;87.40;;;;;;5078677;28;20633;-81
2021/03/08 08:27:03;;;;;;;9.70;4.60;;;-0.60;87.80;;;;;;5096471;28;20662;-81
2021/03/08 08:29:41;;;;;;;7.03;4.10;;;-0.40;87.70;;;;;;5096320;28;20612;-81
2021/03/08 08:32:15;;;;;;;16.20;6.00;;;-0.30;87.60;;;;;;5097079;28;20274;-81
2021/03/08 08:34:46;;;;;;;14.83;5.03;;;-0.30;87.40;;;;;;5096229;28;20756;-81
2021/03/08 08:37:14;;;;;;;10.83;4.40;;;-0.10;87.60;;;;;;5096276;28;20178;-81
2021/03/08 08:40:10;;;;;;;11.30;4.23;;;0.00;86.30;;;;;;5095875;28;20249;-82
2021/03/08 08:42:47;;;;;;;11.60;4.23;;;0.00;85.80;;;;;;5078049;28;20180;-81
2021/03/08 08:45:35;;;;;;;10.00;4.70;;;0.00;85.60;;;;;;5096313;28;20175;-81
2021/03/08 08:48:11;;;;;;;8.73;4.33;;;0.10;85.80;;;;;;5096561;28;20577;-81
2021/03/08 08:50:48;;;;;;;17.10;4.90;;;0.20;85.80;;;;;;5079035;28;20597;-81
2021/03/08 08:53:37;;;;;;;11.30;5.27;;;0.30;85.80;;;;;;5096916;28;20188;-82
2021/03/08 08:56:04;;;;;;;14.13;4.63;;;0.50;85.90;;;;;;5096386;28;20585;-80
2021/03/08 08:58:52;;;;;;;10.13;4.43;;;0.60;85.20;;;;;;5096114;28;20178;-81
2021/03/08 09:01:27;;;;;;;14.93;5.80;;;0.70;84.90;;;;;;5097006;28;20162;-81
2021/03/08 09:04:04;;;;;;;7.53;4.77;;;0.80;83.60;;;;;;5078544;28;20169;-81
2021/03/08 09:06:50;;;;;;;13.23;4.40;;;0.90;84.70;;;;;;5078063;28;20193;-81
2021/03/08 09:09:35;;;;;;;9.47;4.60;;;1.00;83.00;;;;;;5078295;28;20225;-81
2021/03/08 09:12:07;;;;;;;7.57;3.73;;;1.10;82.20;;;;;;5078456;28;20209;-82
2021/03/08 09:14:51;;;;;;;8.77;4.10;;;1.30;83.20;;;;;;5079895;28;20181;-81
2021/03/08 09:17:56;;;;;;;9.73;4.00;;;1.30;81.90;;;;;;5097415;28;20182;-82
2021/03/08 09:20:23;;;;;;;20.07;3.67;;;1.30;80.70;;;;;;5096377;28;20194;-80
2021/03/08 09:23:10;;;;;;;10.83;4.27;;;1.50;80.60;;;;;;5077745;28;20185;-81
2021/03/08 09:25:38;;;;;;;8.83;4.10;;;1.50;80.10;;;;;;5095992;28;20634;-82
2021/03/08 09:28:09;;;;;;;7.50;4.43;;;1.80;80.20;;;;;;5096209;28;20188;-82
2021/03/08 09:30:39;;;;;;;12.13;4.00;;;1.80;79.40;;;;;;5078005;28;20228;-82
2021/03/08 09:33:06;;;;;;;11.70;3.97;;;1.80;78.60;;;;;;5096057;28;20202;-82
2021/03/08 09:35:55;;;;;;;10.10;3.30;;;2.00;78.80;;;;;;5077560;28;20294;-82
2021/03/08 09:38:27;;;;;;;7.87;3.30;;;2.20;75.90;;;;;;5077188;28;20186;-83
2021/03/08 09:40:59;;;;;;;8.73;3.50;;;2.10;73.70;;;;;;5094799;28;20221;-82
2021/03/08 09:43:34;;;;;;;9.17;3.53;;;2.10;73.50;;;;;;5095699;28;20168;-82
2021/03/08 09:46:05;;;;;;;9.40;3.37;;;2.30;74.20;;;;;;5096142;28;20192;-82
2021/03/08 09:48:41;;;;;;;7.77;3.33;;;2.40;74.80;;;;;;5095228;28;20173;-82
2021/03/08 09:51:21;;;;;;;6.30;3.10;;;2.50;75.00;;;;;;5077036;28;20175;-82
2021/03/08 09:53:51;;;;;;;8.57;3.00;;;2.60;73.60;;;;;;5094917;28;20204;-82
2021/03/08 09:56:23;;;;;;;4.40;2.53;;;2.80;74.30;;;;;;5076926;28;20186;-82
2021/03/08 09:58:59;;;;;;;6.03;3.10;;;2.80;72.30;;;;;;5094817;28;20274;-82
2021/03/08 10:01:27;;;;;;;8.57;3.17;;;2.90;72.20;;;;;;5059961;28;20182;-81
2021/03/08 10:03:53;;;;;;;6.10;2.97;;;2.90;72.20;;;;;;5076607;28;20546;-82
2021/03/08 10:06:29;;;;;;;12.30;2.73;;;3.00;70.10;;;;;;5076225;28;20176;-81
2021/03/08 10:08:57;;;;;;;5.17;3.07;;;3.00;68.70;;;;;;5094728;28;20180;-82
2021/03/08 10:11:32;;;;;;;8.10;2.37;;;3.00;70.60;;;;;;5076295;28;20181;-81
2021/03/08 10:13:58;;;;;;;10.77;2.93;;;3.20;69.60;;;;;;5076415;28;20189;-82
2021/03/08 10:16:31;;;;;;;8.63;2.83;;;3.30;69.80;;;;;;5094301;28;20605;-81
2021/03/08 10:19:07;;;;;;;8.70;2.77;;;3.40;71.10;;;;;;5059456;28;20739;-82
2021/03/08 10:21:43;;;;;;;10.83;2.80;;;3.40;67.00;;;;;;5076774;28;20171;-82
2021/03/08 10:24:11;;;;;;;6.23;3.03;;;3.40;69.00;;;;;;5093330;28;20180;-82
2021/03/08 10:26:51;;;;;;;9.30;2.47;;;3.40;67.90;;;;;;5077093;28;20268;-82
2021/03/08 10:29:25;;;;;;;9.23;2.97;;;3.60;66.20;;;;;;5077881;28;20561;-82
2021/03/08 10:31:54;;;;;;;9.17;2.80;;;3.80;67.50;;;;;;5095105;28;20281;-82
2021/03/08 10:34:21;;;;;;;6.80;2.03;;;3.80;66.40;;;;;;5076896;28;20179;-81
2021/03/08 10:36:53;;;;;;;10.17;3.00;;;4.00;67.60;;;;;;5095086;28;20178;-81
2021/03/08 10:39:22;;;;;;;8.00;2.70;;;3.90;64.70;;;;;;5095148;28;20234;-82
2021/03/08 10:41:51;;;;;;;8.17;2.47;;;3.90;65.20;;;;;;5095522;28;20180;-82
2021/03/08 10:44:21;;;;;;;11.10;2.77;;;4.20;66.50;;;;;;5095269;28;20537;-82
2021/03/08 10:46:48;;;;;;;4.37;2.23;;;4.30;65.00;;;;;;5079308;28;20187;-82
2021/03/08 10:49:15;;;;;;;9.03;2.60;;;4.40;62.40;;;;;;5096305;28;20207;-81
2021/03/08 10:51:42;;;;;;;6.47;2.33;;;4.50;63.30;;;;;;5095208;28;20259;-82
2021/03/08 10:54:12;;;;;;;8.50;2.77;;;4.70;64.40;;;;;;5078172;28;20178;-81
2021/03/08 10:56:47;;;;;;;7.87;2.53;;;4.80;62.70;;;;;;5077982;28;20171;-81
2021/03/08 10:59:29;;;;;;;5.13;2.20;;;4.80;60.00;;;;;;5093958;28;20577;-81
2021/03/08 11:02:07;;;;;;;5.33;2.73;;;5.00;59.90;;;;;;5077431;28;20171;-81
2021/03/08 11:04:35;;;;;;;8.70;2.43;;;5.10;62.50;;;;;;5078208;28;20575;-81
2021/03/08 11:07:01;;;;;;;5.73;2.30;;;5.00;58.80;;;;;;5078417;28;20288;-81
2021/03/08 11:09:28;;;;;;;11.47;2.17;;;5.10;60.90;;;;;;5077099;28;20656;-81
2021/03/08 11:11:54;;;;;;;6.53;2.43;;;5.30;62.00;;;;;;5077112;28;20199;-82
2021/03/08 11:14:21;;;;;;;4.33;1.93;;;5.60;62.10;;;;;;5076600;28;20175;-81
2021/03/08 11:16:58;;;;;;;7.10;2.43;;;5.50;55.10;;;;;;5060026;28;20183;-82
2021/03/08 11:19:26;;;;;;;5.33;2.17;;;5.30;56.60;;;;;;5096435;28;20196;-82
2021/03/08 11:22:13;;;;;;;12.03;2.97;;;5.30;56.70;;;;;;5096259;28;20174;-82
2021/03/08 11:24:50;;;;;;;6.33;2.37;;;5.20;58.80;;;;;;5094369;28;20225;-82
2021/03/08 11:27:29;;;;;;;8.07;2.40;;;5.30;57.80;;;;;;5076214;28;20185;-81
2021/03/08 11:30:09;;;;;;;7.47;2.00;;;5.40;57.20;;;;;;5078214;28;20195;-81
2021/03/08 11:32:41;;;;;;;6.10;1.80;;;5.80;55.80;;;;;;5079083;28;20566;-81
2021/03/08 11:35:15;;;;;;;6.23;1.90;;;6.00;54.80;;;;;;5082004;28;20160;-82
2021/03/08 11:37:57;;;;;;;4.10;1.77;;;6.30;54.10;;;;;;5081043;28;20579;-81
2021/03/08 11:40:26;;;;;;;2.60;1.40;;;6.40;52.10;;;;;;5080333;28;20213;-81
2021/03/08 11:42:55;;;;;;;6.00;2.13;;;6.50;51.50;;;;;;5063297;28;20183;-81
2021/03/08 11:45:22;;;;;;;3.17;1.70;;;6.60;48.10;;;;;;5099955;28;20177;-82
2021/03/08 11:47:57;;;;;;;4.27;1.50;;;6.10;46.10;;;;;;5098336;28;20264;-82
2021/03/08 11:50:25;;;;;;;7.43;1.70;;;6.00;49.00;;;;;;5063368;28;20679;-81
2021/03/08 11:52:54;;;;;;;2.33;1.33;;;6.20;47.60;;;;;;5079043;28;20327;-82
2021/03/08 11:55:27;;;;;;;3.93;1.57;;;6.50;47.20;;;;;;5078426;28;20632;-82
2021/03/08 11:57:53;;;;;;;2.27;1.70;;;6.70;48.90;;;;;;5097506;28;20164;-82
2021/03/08 12:00:25;;;;;;;4.33;1.53;;;7.10;50.10;;;;;;5078283;28;20292;-82
2021/03/08 12:02:51;;;;;;;4.90;1.90;;;7.20;50.40;;;;;;5078798;28;20182;-82
2021/03/08 12:05:18;;;;;;;4.37;1.60;;;7.40;48.50;;;;;;5080049;28;20178;-82
2021/03/08 12:07:45;;;;;;;4.23;1.67;;;6.70;45.50;;;;;;5079426;28;20189;-81
2021/03/08 12:10:14;;;;;;;6.40;1.60;;;6.30;42.20;;;;;;5079353;28;20201;-82
2021/03/08 12:12:44;;;;;;;4.43;1.90;;;6.00;44.10;;;;;;5079196;28;20292;-82
2021/03/08 12:15:12;;;;;;;2.40;1.40;;;6.30;44.20;;;;;;5063103;28;20553;-81
2021/03/08 12:17:40;;;;;;;4.93;1.87;;;6.00;45.40;;;;;;5097719;28;20197;-81
2021/03/08 12:20:10;;;;;;;5.40;1.67;;;6.00;45.30;;;;;;5063110;28;20212;-82
2021/03/08 12:22:39;;;;;;;4.00;1.60;;;6.00;46.20;;;;;;5079630;28;20668;-81
2021/03/08 12:25:08;;;;;;;4.63;1.73;;;6.00;44.20;;;;;;5079108;28;20178;-81
2021/03/08 12:27:36;;;;;;;7.97;1.77;;;6.30;45.50;;;;;;5097781;28;20167;-82
2021/03/08 12:30:07;;;;;;;4.40;2.00;;;6.30;43.10;;;;;;5097804;28;20545;-81
2021/03/08 12:32:36;;;;;;;3.47;1.80;;;6.30;42.60;;;;;;5097875;28;20720;-81
2021/03/08 12:35:03;;;;;;;4.57;1.60;;;6.30;42.30;;;;;;5096234;28;20193;-83
2021/03/08 12:37:31;;;;;;;7.87;1.80;;;6.40;41.40;;;;;;5080311;28;20185;-82
2021/03/08 12:39:56;;;;;;;3.27;1.43;;;6.50;42.90;;;;;;5097890;28;20295;-83
2021/03/08 12:42:22;;;;;;;5.30;1.80;;;6.90;46.60;;;;;;5097361;28;20646;-83
2021/03/08 12:44:48;;;;;;;4.20;2.03;;;6.80;42.10;;;;;;5079956;28;20172;-82
2021/03/08 12:47:16;;;;;;;7.90;3.10;;;6.50;41.20;;;;;;5079584;28;20184;-81
2021/03/08 12:49:43;;;;;;;4.50;2.33;;;7.10;44.20;;;;;;5097506;28;20242;-82
2021/03/08 12:52:12;;;;;;;2.90;1.80;;;7.60;45.60;;;;;;5079590;28;20322;-81
2021/03/08 12:54:41;;;;;;;4.23;2.13;;;8.20;43.40;;;;;;5097428;28;20185;-81
2021/03/08 12:57:14;;;;;;;2.40;1.73;;;8.30;39.60;;;;;;5079054;28;20194;-82
2021/03/08 12:59:44;;;;;;;3.17;1.60;;;7.80;37.20;;;;;;5096774;28;20701;-82
2021/03/08 13:02:11;;;;;;;4.83;1.80;;;7.00;36.80;;;;;;5096889;28;20270;-82
2021/03/08 13:04:44;;;;;;;4.07;1.70;;;7.20;40.80;;;;;;5096719;28;20197;-81
2021/03/08 13:07:20;;;;;;;2.43;1.60;;;7.80;41.20;;;;;;5078722;28;20189;-81
2021/03/08 13:09:54;;;;;;;3.97;1.90;;;7.70;40.70;;;;;;5097202;28;20195;-81
2021/03/08 13:12:25;;;;;;;4.73;1.70;;;7.40;38.60;;;;;;5097463;28;20167;-80
2021/03/08 13:14:56;;;;;;;6.07;2.00;;;7.00;39.00;;;;;;5078982;28;20258;-81
2021/03/08 13:17:31;;;;;;;2.60;1.40;;;7.30;40.80;;;;;;5079433;28;20236;-83
2021/03/08 13:20:04;;;;;;;4.03;1.60;;;7.30;39.40;;;;;;5097174;28;20622;-82
2021/03/08 13:22:35;;;;;;;7.53;2.00;;;6.90;38.50;;;;;;5079341;28;20638;-83
2021/03/08 13:25:06;;;;;;;8.30;1.80;;;6.80;38.80;;;;;;5096754;28;20166;-83